createdAt,value
2019-04-29T00:02:05.838Z,2.85
2019-04-29T00:04:34.812Z,3.30
2019-04-29T00:07:04.225Z,2.92
2019-04-29T00:09:33.428Z,2.75
2019-04-29T00:12:02.504Z,2.87
2019-04-29T00:14:32.635Z,2.98
2019-04-29T00:17:09.405Z,2.67
2019-04-29T00:19:46.286Z,2.70
2019-04-29T00:22:15.276Z,2.70
2019-04-29T00:24:44.135Z,2.90
2019-04-29T00:27:13.370Z,2.60
2019-04-29T00:29:42.469Z,2.70
2019-04-29T00:32:11.771Z,3.33
2019-04-29T00:34:41.128Z,2.95
2019-04-29T00:37:11.801Z,2.70
2019-04-29T00:39:51.850Z,2.77
2019-04-29T00:42:31.093Z,2.80
2019-04-29T00:45:00.068Z,2.20
2019-04-29T00:47:29.178Z,1.90
2019-04-29T00:49:58.180Z,1.90
2019-04-29T00:52:27.259Z,2.60
2019-04-29T00:55:12.629Z,2.22
2019-04-29T00:57:41.726Z,2.20
2019-04-29T01:00:12.850Z,2.00
2019-04-29T01:02:42.084Z,2.17
2019-04-29T01:05:11.111Z,2.60
2019-04-29T01:07:40.375Z,2.47
2019-04-29T01:10:09.735Z,2.42
2019-04-29T01:12:38.854Z,2.92
2019-04-29T01:15:07.973Z,2.37
2019-04-29T01:17:36.949Z,2.50
2019-04-29T01:20:10.045Z,2.42
2019-04-29T01:22:39.138Z,2.35
2019-04-29T01:25:08.344Z,2.45
2019-04-29T01:27:38.965Z,2.22
2019-04-29T01:30:08.567Z,2.12
2019-04-29T01:32:37.669Z,2.00
2019-04-29T01:35:07.555Z,2.58
2019-04-29T01:37:38.211Z,2.30
2019-04-29T01:40:15.921Z,2.42
2019-04-29T01:42:45.211Z,2.30
2019-04-29T01:45:14.100Z,2.35
2019-04-29T01:47:43.399Z,2.30
2019-04-29T01:50:12.600Z,2.22
2019-04-29T01:52:41.600Z,2.83
2019-04-29T01:55:10.769Z,3.02
2019-04-29T01:57:39.681Z,2.90
2019-04-29T02:00:12.488Z,3.05
2019-04-29T02:02:41.650Z,2.90
2019-04-29T02:05:10.650Z,2.47
2019-04-29T02:07:39.650Z,2.42
2019-04-29T02:10:10.480Z,2.20
2019-04-29T02:12:39.360Z,3.00
2019-04-29T02:15:09.311Z,2.67
2019-04-29T02:17:57.526Z,2.62
2019-04-29T02:20:26.417Z,3.00
2019-04-29T02:23:02.891Z,3.00
2019-04-29T02:25:39.557Z,3.02
2019-04-29T02:28:08.771Z,2.72
2019-04-29T02:30:43.587Z,2.92
2019-04-29T02:33:12.885Z,2.92
2019-04-29T02:35:42.085Z,3.30
2019-04-29T02:38:15.490Z,3.42
2019-04-29T02:40:49.596Z,3.00
2019-04-29T02:43:26.277Z,3.27
2019-04-29T02:45:55.548Z,3.10
2019-04-29T02:48:29.110Z,3.25
2019-04-29T02:50:55.111Z,2.90
2019-04-29T02:53:24.300Z,3.02
2019-04-29T02:55:54.931Z,3.00
2019-04-29T02:58:37.627Z,2.90
2019-04-29T03:01:23.530Z,2.52
2019-04-29T03:03:56.931Z,2.42
2019-04-29T03:06:25.811Z,2.52
2019-04-29T03:08:54.708Z,2.62
2019-04-29T03:11:23.901Z,2.70
2019-04-29T03:13:53.010Z,2.67
2019-04-29T03:16:22.091Z,2.70
2019-04-29T03:18:52.721Z,3.20
2019-04-29T03:21:23.360Z,3.12
2019-04-29T03:23:52.245Z,3.37
2019-04-29T03:26:21.446Z,3.12
2019-04-29T03:28:50.635Z,3.50
2019-04-29T03:31:19.746Z,3.27
2019-04-29T03:33:49.063Z,3.60
2019-04-29T03:36:17.926Z,3.12
2019-04-29T03:38:46.855Z,2.87
2019-04-29T03:41:16.015Z,2.75
2019-04-29T03:43:44.902Z,2.62
2019-04-29T03:46:32.410Z,2.55
2019-04-29T03:49:01.486Z,2.80
2019-04-29T03:51:30.619Z,3.10
2019-04-29T03:53:59.925Z,2.90
2019-04-29T03:56:29.115Z,2.90
2019-04-29T03:58:58.214Z,2.83
2019-04-29T04:01:28.961Z,2.92
2019-04-29T04:03:59.600Z,3.05
2019-04-29T04:06:46.720Z,3.10
2019-04-29T04:09:17.430Z,2.77
2019-04-29T04:11:46.422Z,2.70
2019-04-29T04:14:15.639Z,2.80
2019-04-29T04:17:02.651Z,3.00
2019-04-29T04:19:33.380Z,2.83
2019-04-29T04:22:02.259Z,2.62
2019-04-29T04:24:31.361Z,2.35
2019-04-29T04:27:00.355Z,2.80
2019-04-29T04:29:29.348Z,3.10
2019-04-29T04:31:58.230Z,2.80
2019-04-29T04:34:27.350Z,3.70
2019-04-29T04:37:00.067Z,3.65
2019-04-29T04:39:28.614Z,3.33
2019-04-29T04:41:57.695Z,3.52
2019-04-29T04:44:28.212Z,4.25
2019-04-29T04:46:57.103Z,3.90
2019-04-29T04:49:26.208Z,4.62
2019-04-29T04:51:55.200Z,4.87
2019-04-29T04:54:24.291Z,4.75
2019-04-29T04:56:53.396Z,4.00
2019-04-29T04:59:22.485Z,5.62
2019-04-29T05:01:51.685Z,5.12
2019-04-29T05:04:20.684Z,3.40
2019-04-29T05:06:49.680Z,2.83
2019-04-29T05:09:18.857Z,3.10
2019-04-29T05:11:47.978Z,2.83
2019-04-29T05:14:16.851Z,3.40
2019-04-29T05:16:45.815Z,3.15
2019-04-29T05:19:15.138Z,3.70
2019-04-29T05:21:44.226Z,3.42
2019-04-29T05:24:13.121Z,3.50
2019-04-29T05:26:42.329Z,3.12
2019-04-29T05:29:11.311Z,3.35
2019-04-29T05:31:40.319Z,2.80
2019-04-29T05:34:09.409Z,3.40
2019-04-29T05:36:39.930Z,3.08
2019-04-29T05:42:01.275Z,3.08
2019-04-29T05:44:44.097Z,3.47
2019-04-29T05:47:24.045Z,3.37
2019-04-29T05:53:05.138Z,3.40
2019-04-29T05:55:34.234Z,3.40
2019-04-29T05:58:12.335Z,3.37
2019-04-29T06:00:43.785Z,3.77
2019-04-29T06:03:12.890Z,3.45
2019-04-29T06:05:42.390Z,3.25
2019-04-29T06:08:11.499Z,3.70
2019-04-29T06:10:42.094Z,4.05
2019-04-29T06:13:11.528Z,4.58
2019-04-29T06:15:40.620Z,4.35
2019-04-29T06:18:09.711Z,4.33
2019-04-29T06:20:38.810Z,4.83
2019-04-29T06:23:07.899Z,5.03
2019-04-29T06:25:36.779Z,4.83
2019-04-29T06:28:05.889Z,4.30
2019-04-29T06:30:36.976Z,4.45
2019-04-29T06:33:05.500Z,5.55
2019-04-29T06:35:34.803Z,5.25
2019-04-29T06:38:03.915Z,4.12
2019-04-29T06:40:35.292Z,5.00
2019-04-29T06:43:03.737Z,5.35
2019-04-29T06:45:52.071Z,5.60
2019-04-29T06:48:20.974Z,5.12
2019-04-29T06:50:51.095Z,6.33
2019-04-29T06:53:21.346Z,5.78
2019-04-29T06:55:50.704Z,5.58
2019-04-29T06:58:19.704Z,5.95
2019-04-29T07:00:50.867Z,5.90
2019-04-29T07:03:20.999Z,6.25
2019-04-29T07:05:51.648Z,6.92
2019-04-29T07:08:20.795Z,6.30
2019-04-29T07:10:49.900Z,5.72
2019-04-29T07:13:22.795Z,6.58
2019-04-29T07:15:49.544Z,6.85
2019-04-29T07:18:18.512Z,5.50
2019-04-29T07:20:47.598Z,5.70
2019-04-29T07:23:16.588Z,6.17
2019-04-29T07:25:45.590Z,6.60
2019-04-29T07:28:18.472Z,6.00
2019-04-29T07:31:00.625Z,5.35
2019-04-29T07:33:21.721Z,5.83
2019-04-29T07:35:47.972Z,6.28
2019-04-29T07:38:17.324Z,6.20
2019-04-29T07:40:46.415Z,5.47
2019-04-29T07:43:15.403Z,5.67
2019-04-29T07:45:46.555Z,6.75
2019-04-29T07:48:15.440Z,5.65
2019-04-29T07:50:44.523Z,6.05
2019-04-29T07:53:13.630Z,5.25
2019-04-29T07:55:43.031Z,5.60
2019-04-29T07:58:12.029Z,5.83
2019-04-29T08:00:44.570Z,5.87
2019-04-29T08:03:11.959Z,5.62
2019-04-29T08:05:41.268Z,6.12
2019-04-29T08:08:10.858Z,5.53
2019-04-29T08:10:53.724Z,4.65
2019-04-29T08:13:11.508Z,4.50
2019-04-29T08:15:41.666Z,5.30
2019-04-29T08:18:15.700Z,5.25
2019-04-29T08:20:41.870Z,5.15
2019-04-29T08:23:11.180Z,5.35
2019-04-29T08:25:40.052Z,4.92
2019-04-29T08:28:09.383Z,4.97
2019-04-29T08:30:41.816Z,5.33
2019-04-29T08:33:11.972Z,4.87
2019-04-29T08:35:39.515Z,5.58
2019-04-29T08:38:08.714Z,4.70
2019-04-29T08:40:37.815Z,4.92
2019-04-29T08:43:26.977Z,5.00
2019-04-29T08:46:12.864Z,4.92
2019-04-29T08:48:42.169Z,5.10
2019-04-29T08:51:11.371Z,4.40
2019-04-29T08:53:40.468Z,4.67
2019-04-29T08:56:10.345Z,4.33
2019-04-29T08:58:39.649Z,4.80
2019-04-29T09:01:10.087Z,4.40
2019-04-29T09:03:40.493Z,4.90
2019-04-29T09:06:09.930Z,4.25
2019-04-29T09:08:53.502Z,4.75
2019-04-29T09:11:13.023Z,4.90
2019-04-29T09:13:40.389Z,4.20
2019-04-29T09:16:09.582Z,4.95
2019-04-29T09:18:38.923Z,4.25
2019-04-29T09:21:07.883Z,4.20
2019-04-29T09:23:38.331Z,4.08
2019-04-29T09:26:09.042Z,3.77
2019-04-29T09:28:37.924Z,4.00
2019-04-29T09:31:07.023Z,3.95
2019-04-29T09:33:36.035Z,3.72
2019-04-29T09:36:05.105Z,3.90
2019-04-29T09:38:36.814Z,4.12
2019-04-29T09:41:18.163Z,4.35
2019-04-29T09:43:48.695Z,3.55
2019-04-29T09:46:19.223Z,3.98
2019-04-29T09:48:48.523Z,3.77
2019-04-29T09:51:22.158Z,3.72
2019-04-29T09:53:48.363Z,3.92
2019-04-29T09:56:17.642Z,4.25
2019-04-29T09:58:46.617Z,3.62
2019-04-29T10:01:18.619Z,3.83
2019-04-29T10:04:05.942Z,4.00
2019-04-29T10:06:42.800Z,4.47
2019-04-29T10:09:12.091Z,4.28
2019-04-29T10:11:41.203Z,4.20
2019-04-29T10:14:10.083Z,3.90
2019-04-29T10:16:40.732Z,4.28
2019-04-29T10:19:11.362Z,3.58
2019-04-29T10:21:40.238Z,4.97
2019-04-29T10:24:09.403Z,4.60
2019-04-29T10:26:38.312Z,4.80
2019-04-29T10:29:09.080Z,4.35
2019-04-29T10:31:38.386Z,4.70
2019-04-29T10:34:07.824Z,4.60
2019-04-29T10:36:36.941Z,4.30
2019-04-29T10:39:13.643Z,4.60
2019-04-29T10:41:44.683Z,4.65
2019-04-29T10:44:18.993Z,5.10
2019-04-29T10:46:58.316Z,4.75
2019-04-29T10:52:10.567Z,5.00
2019-04-29T10:54:39.667Z,4.25
2019-04-29T10:57:10.546Z,4.67
2019-04-29T10:59:45.020Z,4.42
2019-04-29T11:02:33.272Z,4.30
2019-04-29T11:05:16.604Z,4.20
2019-04-29T11:07:47.439Z,4.40
2019-04-29T11:10:25.037Z,4.30
2019-04-29T11:12:48.887Z,3.90
2019-04-29T11:15:19.727Z,4.17
2019-04-29T11:17:58.464Z,3.70
2019-04-29T11:20:21.504Z,3.70
2019-04-29T11:23:09.156Z,4.03
2019-04-29T11:25:55.995Z,4.28
2019-04-29T11:28:25.144Z,3.67
2019-04-29T11:30:54.227Z,4.05
2019-04-29T11:33:41.866Z,4.03
2019-04-29T11:36:12.491Z,3.72
2019-04-29T11:38:41.596Z,4.00
2019-04-29T11:41:12.189Z,3.80
2019-04-29T11:43:41.427Z,3.25
2019-04-29T11:46:14.457Z,3.33
2019-04-29T11:48:41.440Z,3.52
2019-04-29T11:51:15.067Z,4.00
2019-04-29T11:53:44.372Z,3.83
2019-04-29T11:56:13.547Z,4.15
2019-04-29T11:58:59.949Z,2.77
2019-04-29T12:01:38.612Z,3.22
2019-04-29T12:04:02.968Z,3.30
2019-04-29T12:06:32.047Z,4.03
2019-04-29T12:09:01.568Z,2.98
2019-04-29T12:11:35.835Z,3.25
2019-04-29T12:14:03.303Z,2.90
2019-04-29T12:16:44.335Z,2.87
2019-04-29T12:19:31.527Z,3.25
2019-04-29T12:22:04.931Z,2.67
2019-04-29T12:24:32.266Z,3.05
2019-04-29T12:27:01.456Z,2.90
2019-04-29T12:29:30.558Z,3.22
2019-04-29T12:32:01.207Z,2.80
2019-04-29T12:34:37.648Z,3.10
2019-04-29T12:37:11.249Z,2.87
2019-04-29T12:39:45.317Z,2.75
2019-04-29T12:42:22.067Z,2.70
2019-04-29T12:44:55.870Z,3.10
2019-04-29T12:47:27.212Z,3.08
2019-04-29T12:49:56.407Z,3.08
2019-04-29T12:52:25.514Z,2.72
2019-04-29T12:54:54.706Z,2.90
2019-04-29T12:57:24.715Z,2.72
2019-04-29T12:59:54.673Z,2.80
2019-04-29T13:02:47.586Z,2.67
2019-04-29T13:05:21.799Z,2.90
2019-04-29T13:07:54.981Z,2.60
2019-04-29T13:10:28.887Z,3.05
2019-04-29T13:12:58.221Z,2.90
2019-04-29T13:15:37.786Z,3.35
2019-04-29T13:18:12.704Z,3.17
2019-04-29T13:20:41.579Z,2.90
2019-04-29T13:23:17.686Z,3.37
2019-04-29T13:25:40.366Z,2.87
2019-04-29T13:28:09.367Z,4.00
2019-04-29T13:30:38.777Z,3.33
2019-04-29T13:33:16.291Z,3.08
2019-04-29T13:35:47.927Z,3.27
2019-04-29T13:38:09.431Z,2.92
2019-04-29T13:40:39.465Z,3.30
2019-04-29T13:43:08.630Z,3.60
2019-04-29T13:45:39.579Z,3.00
2019-04-29T13:48:25.748Z,2.90
2019-04-29T13:50:59.379Z,2.98
2019-04-29T13:53:28.253Z,3.20
2019-04-29T13:56:11.047Z,2.50
2019-04-29T13:58:29.244Z,2.80
2019-04-29T14:01:22.484Z,2.90
2019-04-29T14:03:49.939Z,2.75
2019-04-29T14:06:20.005Z,3.30
2019-04-29T14:08:49.395Z,2.92
2019-04-29T14:11:22.009Z,2.80
2019-04-29T14:13:50.608Z,2.15
2019-04-29T14:16:19.599Z,2.60
2019-04-29T14:18:50.078Z,2.37
2019-04-29T14:21:19.447Z,2.70
2019-04-29T14:23:48.547Z,2.75
2019-04-29T14:26:17.947Z,2.30
2019-04-29T14:28:48.586Z,2.70
2019-04-29T14:31:18.606Z,2.30
2019-04-29T14:33:55.941Z,2.95
2019-04-29T14:36:24.698Z,2.30
2019-04-29T14:38:53.800Z,2.40
2019-04-29T14:41:22.932Z,2.37
2019-04-29T14:43:57.047Z,2.20
2019-04-29T14:46:33.772Z,2.60
2019-04-29T14:49:06.155Z,2.30
2019-04-29T14:51:36.855Z,2.45
2019-04-29T14:54:07.285Z,2.20
2019-04-29T14:56:35.904Z,2.65
2019-04-29T14:59:07.334Z,2.37
2019-04-29T15:01:46.464Z,2.12
2019-04-29T15:04:18.837Z,2.60
2019-04-29T15:06:47.501Z,2.35
2019-04-29T15:09:19.654Z,2.55
2019-04-29T15:11:59.433Z,1.95
2019-04-29T15:14:35.898Z,2.10
2019-04-29T15:17:06.476Z,2.33
2019-04-29T15:19:49.312Z,3.15
2019-04-29T15:22:18.407Z,2.30
2019-04-29T15:24:47.428Z,2.77
2019-04-29T15:27:16.736Z,1.85
2019-04-29T15:29:45.786Z,2.40
2019-04-29T15:32:17.795Z,2.60
2019-04-29T15:34:48.177Z,2.52
2019-04-29T15:37:16.302Z,2.40
2019-04-29T15:39:46.058Z,2.70
2019-04-29T15:42:16.024Z,2.35
2019-04-29T15:44:45.557Z,2.40
2019-04-29T15:47:14.614Z,2.83
2019-04-29T15:49:43.926Z,3.02
2019-04-29T15:52:15.908Z,2.98
2019-04-29T15:54:45.955Z,2.80
2019-04-29T15:57:15.697Z,2.87
2019-04-29T15:59:48.997Z,2.90
2019-04-29T16:02:15.536Z,3.45
2019-04-29T16:04:47.330Z,3.10
2019-04-29T16:07:34.186Z,2.90
2019-04-29T16:10:05.050Z,3.20
2019-04-29T16:12:38.533Z,2.50
2019-04-29T16:15:08.538Z,3.37
2019-04-29T16:17:39.262Z,2.90
2019-04-29T16:20:08.890Z,2.98
2019-04-29T16:22:39.182Z,2.95
2019-04-29T16:25:10.862Z,2.80
2019-04-29T16:27:59.920Z,2.90
2019-04-29T16:30:31.875Z,3.37
2019-04-29T16:32:59.654Z,2.90
2019-04-29T16:35:34.749Z,2.72
2019-04-29T16:38:05.638Z,2.92
2019-04-29T16:40:33.780Z,3.33
2019-04-29T16:43:14.355Z,2.50
2019-04-29T16:45:51.605Z,3.00
2019-04-29T16:48:15.343Z,3.20
2019-04-29T16:50:44.275Z,2.90
2019-04-29T16:53:13.147Z,2.60
2019-04-29T16:55:43.154Z,3.00
2019-04-29T16:58:17.931Z,2.52
2019-04-29T17:00:46.735Z,2.92
2019-04-29T17:03:13.989Z,2.95
2019-04-29T17:05:43.110Z,3.02
2019-04-29T17:08:15.356Z,2.55
2019-04-29T17:10:45.573Z,3.10
2019-04-29T17:13:18.660Z,3.17
2019-04-29T17:15:52.153Z,3.20
2019-04-29T17:18:15.830Z,3.20
2019-04-29T17:20:44.852Z,3.70
2019-04-29T17:23:13.758Z,3.10
2019-04-29T17:25:42.990Z,3.52
2019-04-29T17:28:25.462Z,2.90
2019-04-29T17:30:55.151Z,3.17
2019-04-29T17:33:28.851Z,3.65
2019-04-29T17:35:57.133Z,3.10
2019-04-29T17:38:26.204Z,3.08
2019-04-29T17:40:55.415Z,3.12
2019-04-29T17:43:26.054Z,3.58
2019-04-29T17:46:02.834Z,3.45
2019-04-29T17:51:31.693Z,3.50
2019-04-29T17:54:05.484Z,3.20
2019-04-29T17:56:36.079Z,3.08
2019-04-29T17:59:09.459Z,3.50
2019-04-29T18:01:56.712Z,3.17
2019-04-29T18:04:27.313Z,3.10
2019-04-29T18:07:10.553Z,3.45
2019-04-29T18:09:48.453Z,4.80
2019-04-29T18:12:19.079Z,5.20
2019-04-29T18:14:47.970Z,4.45
2019-04-29T18:17:28.918Z,4.15
2019-04-29T18:19:59.344Z,3.40
2019-04-29T18:22:36.405Z,3.55
2019-04-29T18:25:07.886Z,3.10
2019-04-29T18:27:39.032Z,3.80
2019-04-29T18:30:12.184Z,3.40
2019-04-29T18:32:42.313Z,3.70
2019-04-29T18:35:10.294Z,3.80
2019-04-29T18:37:39.201Z,3.20
2019-04-29T18:40:08.538Z,3.47
2019-04-29T18:42:38.627Z,3.65
2019-04-29T18:45:08.330Z,3.20
2019-04-29T18:47:38.836Z,2.60
2019-04-29T18:50:08.682Z,2.75
2019-04-29T18:52:37.579Z,2.75
2019-04-29T18:55:07.162Z,2.92
2019-04-29T18:57:36.272Z,2.92
2019-04-29T19:00:13.474Z,2.95
2019-04-29T19:02:46.099Z,2.55
2019-04-29T19:05:12.050Z,2.85
2019-04-29T19:07:52.524Z,2.47
2019-04-29T19:10:14.579Z,2.50
2019-04-29T19:12:44.585Z,2.47
2019-04-29T19:15:15.073Z,2.87
2019-04-29T19:17:46.609Z,3.20
2019-04-29T19:20:16.735Z,3.30
2019-04-29T19:22:48.232Z,3.12
2019-04-29T19:25:17.436Z,3.00
2019-04-29T19:27:46.412Z,3.25
2019-04-29T19:30:20.761Z,4.37
2019-04-29T19:32:46.935Z,3.70
2019-04-29T19:35:17.793Z,3.80
2019-04-29T19:37:47.005Z,4.33
2019-04-29T19:40:16.488Z,3.60
2019-04-29T19:42:47.042Z,4.42
2019-04-29T19:45:17.453Z,4.40
2019-04-29T19:47:50.775Z,4.65
2019-04-29T19:50:19.533Z,4.08
2019-04-29T19:52:48.307Z,3.85
2019-04-29T19:55:18.890Z,4.40
2019-04-29T19:57:51.988Z,4.50
2019-04-29T20:00:28.257Z,4.92
2019-04-29T20:02:50.891Z,3.85
2019-04-29T20:05:39.471Z,3.67
2019-04-29T20:08:07.219Z,4.03
2019-04-29T20:10:44.423Z,4.12
2019-04-29T20:13:06.908Z,3.42
2019-04-29T20:15:38.236Z,3.60
2019-04-29T20:18:34.431Z,3.75
2019-04-29T20:21:08.750Z,3.52
2019-04-29T20:23:29.019Z,3.80
2019-04-29T20:26:13.893Z,3.33
2019-04-29T20:28:33.505Z,3.17
2019-04-29T20:31:16.389Z,2.70
2019-04-29T20:33:36.238Z,3.45
2019-04-29T20:36:06.167Z,3.77
2019-04-29T20:38:38.915Z,3.65
2019-04-29T20:41:08.022Z,3.50
2019-04-29T20:43:36.927Z,3.40
2019-04-29T20:46:06.037Z,3.60
2019-04-29T20:48:37.074Z,3.45
2019-04-29T20:51:13.568Z,2.83
2019-04-29T20:53:47.514Z,2.72
2019-04-29T20:56:23.620Z,2.75
2019-04-29T20:58:47.109Z,3.02
2019-04-29T21:01:17.897Z,2.80
2019-04-29T21:03:51.219Z,2.65
2019-04-29T21:06:17.343Z,3.25
2019-04-29T21:08:50.988Z,3.30
2019-04-29T21:11:27.373Z,3.42
2019-04-29T21:13:57.934Z,3.00
2019-04-29T21:16:30.690Z,3.02
2019-04-29T21:19:00.644Z,2.52
2019-04-29T21:21:29.977Z,2.90
2019-04-29T21:23:58.970Z,3.37
2019-04-29T21:26:27.967Z,3.22
2019-04-29T21:28:57.271Z,3.30
2019-04-29T21:31:26.147Z,2.42
2019-04-29T21:33:58.791Z,2.87
2019-04-29T21:36:30.697Z,3.08
2019-04-29T21:39:15.972Z,3.58
2019-04-29T21:42:03.298Z,3.30
2019-04-29T21:44:32.398Z,2.75
2019-04-29T21:47:04.739Z,2.85
2019-04-29T21:49:43.301Z,3.02
2019-04-29T21:52:05.620Z,3.10
2019-04-29T21:54:34.355Z,2.95
2019-04-29T21:57:05.685Z,2.90
2019-04-29T21:59:35.751Z,2.58
2019-04-29T22:02:06.697Z,2.92
2019-04-29T22:04:37.394Z,2.95
2019-04-29T22:07:08.233Z,2.50
2019-04-29T22:09:40.617Z,2.80
2019-04-29T22:12:07.992Z,2.20
2019-04-29T22:14:37.098Z,2.60
2019-04-29T22:17:06.186Z,2.50
2019-04-29T22:19:35.398Z,2.50
2019-04-29T22:22:05.713Z,2.30
2019-04-29T22:24:35.681Z,2.30
2019-04-29T22:27:08.185Z,2.42
2019-04-29T22:29:37.437Z,2.45
2019-04-29T22:32:14.355Z,2.02
2019-04-29T22:34:37.969Z,2.35
2019-04-29T22:37:07.214Z,2.30
2019-04-29T22:39:36.313Z,2.30
2019-04-29T22:42:09.899Z,1.90
2019-04-29T22:44:38.759Z,2.10
2019-04-29T22:47:07.938Z,2.10
2019-04-29T22:49:37.359Z,1.92
2019-04-29T22:52:08.902Z,2.20
2019-04-29T22:54:37.946Z,2.40
2019-04-29T22:57:07.251Z,2.62
2019-04-29T22:59:36.298Z,2.77
2019-04-29T23:02:05.864Z,2.65
2019-04-29T23:04:35.230Z,2.62
2019-04-29T23:07:04.391Z,2.67
2019-04-29T23:09:33.479Z,2.72
2019-04-29T23:12:02.670Z,2.33
2019-04-29T23:14:31.678Z,2.70
2019-04-29T23:17:00.778Z,2.42
2019-04-29T23:19:30.076Z,2.40
2019-04-29T23:22:00.701Z,2.50
2019-04-29T23:24:51.310Z,2.77
2019-04-29T23:27:20.283Z,2.70
2019-04-29T23:29:49.691Z,2.50
2019-04-29T23:32:18.678Z,2.58
2019-04-29T23:34:47.741Z,2.70
2019-04-29T23:37:19.400Z,2.85
2019-04-29T23:39:47.713Z,2.70
2019-04-29T23:42:16.609Z,2.87
2019-04-29T23:44:45.701Z,2.80
2019-04-29T23:47:15.860Z,2.75
2019-04-29T23:49:46.831Z,2.80
2019-04-29T23:52:17.852Z,2.47
2019-04-29T23:54:48.551Z,3.20
2019-04-29T23:57:23.802Z,3.10
